createdAt,value
2019-01-24T00:01:27.828Z,27.67
2019-01-24T00:03:31.488Z,29.65
2019-01-24T00:05:35.202Z,29.23
2019-01-24T00:07:38.903Z,28.35
2019-01-24T00:09:42.654Z,28.30
2019-01-24T00:11:46.422Z,28.00
2019-01-24T00:13:50.138Z,26.10
2019-01-24T00:15:53.775Z,27.77
2019-01-24T00:17:57.552Z,27.33
2019-01-24T00:20:01.265Z,27.58
2019-01-24T00:22:05.420Z,25.57
2019-01-24T00:24:09.197Z,27.35
2019-01-24T00:26:12.893Z,26.57
2019-01-24T00:28:16.649Z,28.90
2019-01-24T00:30:20.479Z,26.93
2019-01-24T00:32:24.199Z,28.92
2019-01-24T00:34:27.908Z,25.92
2019-01-24T00:36:31.669Z,25.70
2019-01-24T00:38:35.413Z,26.17
2019-01-24T00:40:39.078Z,27.97
2019-01-24T00:42:42.868Z,26.73
2019-01-24T00:44:46.605Z,27.20
2019-01-24T00:46:51.404Z,27.13
2019-01-24T00:48:55.109Z,27.90
2019-01-24T00:50:58.838Z,27.20
2019-01-24T00:53:02.564Z,26.87
2019-01-24T00:55:09.339Z,27.67
2019-01-24T00:57:12.971Z,25.90
2019-01-24T00:59:16.762Z,28.52
2019-01-24T01:01:20.436Z,25.80
2019-01-24T01:03:24.120Z,26.97
2019-01-24T01:05:27.852Z,26.33
2019-01-24T01:07:31.577Z,27.20
2019-01-24T01:09:35.354Z,26.87
2019-01-24T01:11:39.120Z,26.87
2019-01-24T01:13:42.902Z,28.83
2019-01-24T01:15:46.676Z,24.93
2019-01-24T01:17:50.411Z,28.47
2019-01-24T01:19:54.063Z,26.13
2019-01-24T01:21:57.780Z,27.10
2019-01-24T01:24:01.493Z,25.88
2019-01-24T01:26:05.330Z,26.02
2019-01-24T01:28:09.146Z,27.48
2019-01-24T01:30:18.010Z,29.87
2019-01-24T01:32:21.590Z,26.23
2019-01-24T01:34:25.471Z,26.52
2019-01-24T01:36:29.230Z,26.70
2019-01-24T01:38:32.876Z,24.93
2019-01-24T01:40:36.657Z,26.00
2019-01-24T01:42:40.402Z,25.63
2019-01-24T01:44:44.175Z,23.55
2019-01-24T01:46:47.903Z,25.67
2019-01-24T01:48:51.580Z,24.30
2019-01-24T01:50:55.378Z,26.40
2019-01-24T01:52:59.108Z,25.70
2019-01-24T01:55:02.725Z,26.43
2019-01-24T01:57:06.462Z,25.25
2019-01-24T01:59:11.878Z,27.20
2019-01-24T02:01:15.606Z,27.50
2019-01-24T02:03:19.303Z,28.42
2019-01-24T02:05:23.261Z,26.10
2019-01-24T02:07:26.989Z,28.20
2019-01-24T02:09:30.774Z,26.57
2019-01-24T02:11:34.515Z,26.17
2019-01-24T02:13:38.188Z,24.90
2019-01-24T02:15:41.958Z,25.50
2019-01-24T02:17:45.905Z,25.43
2019-01-24T02:19:49.611Z,26.40
2019-01-24T02:21:53.347Z,24.47
2019-01-24T02:23:56.955Z,26.23
2019-01-24T02:26:00.737Z,25.27
2019-01-24T02:28:04.433Z,26.67
2019-01-24T02:30:20.265Z,25.50
2019-01-24T02:32:24.038Z,25.00
2019-01-24T02:34:27.710Z,24.90
2019-01-24T02:36:31.398Z,25.50
2019-01-24T02:38:35.233Z,27.17
2019-01-24T02:40:39.519Z,25.00
2019-01-24T02:42:43.161Z,25.10
2019-01-24T02:44:46.858Z,25.43
2019-01-24T02:46:50.623Z,25.90
2019-01-24T02:48:54.298Z,26.07
2019-01-24T02:50:58.136Z,25.87
2019-01-24T02:53:01.823Z,22.97
2019-01-24T02:55:08.827Z,24.13
2019-01-24T02:57:12.528Z,25.87
2019-01-24T02:59:16.205Z,27.77
2019-01-24T03:01:20.076Z,25.40
2019-01-24T03:03:23.841Z,24.52
2019-01-24T03:05:27.528Z,26.57
2019-01-24T03:07:31.289Z,27.40
2019-01-24T03:09:34.972Z,26.20
2019-01-24T03:11:38.740Z,27.53
2019-01-24T03:13:42.480Z,26.83
2019-01-24T03:15:46.235Z,24.45
2019-01-24T03:17:50.672Z,24.60
2019-01-24T03:19:54.372Z,26.42
2019-01-24T03:21:58.112Z,26.33
2019-01-24T03:24:01.773Z,26.17
2019-01-24T03:26:05.564Z,25.70
2019-01-24T03:28:09.409Z,24.30
2019-01-24T03:30:18.951Z,26.43
2019-01-24T03:32:22.728Z,23.10
2019-01-24T03:34:26.365Z,22.80
2019-01-24T03:36:30.084Z,25.07
2019-01-24T03:38:33.804Z,26.57
2019-01-24T03:40:37.550Z,24.82
2019-01-24T03:42:42.370Z,25.83
2019-01-24T03:44:46.085Z,24.87
2019-01-24T03:46:49.821Z,25.63
2019-01-24T03:48:53.540Z,24.65
2019-01-24T03:50:57.434Z,27.98
2019-01-24T03:53:01.130Z,26.42
2019-01-24T03:55:07.568Z,25.83
2019-01-24T03:57:11.330Z,23.95
2019-01-24T03:59:15.093Z,27.27
2019-01-24T04:01:18.843Z,25.08
2019-01-24T04:03:22.604Z,26.80
2019-01-24T04:05:26.339Z,24.20
2019-01-24T04:07:30.084Z,24.12
2019-01-24T04:09:33.817Z,23.92
2019-01-24T04:11:37.463Z,25.70
2019-01-24T04:13:41.174Z,24.00
2019-01-24T04:15:44.829Z,24.90
2019-01-24T04:17:50.533Z,26.90
2019-01-24T04:19:54.100Z,25.20
2019-01-24T04:21:57.771Z,24.55
2019-01-24T04:24:03.222Z,23.30
2019-01-24T04:26:07.011Z,24.75
2019-01-24T04:28:10.712Z,25.40
2019-01-24T04:30:16.704Z,23.92
2019-01-24T04:32:20.397Z,24.20
2019-01-24T04:34:24.088Z,27.33
2019-01-24T04:36:27.760Z,23.67
2019-01-24T04:38:31.532Z,25.02
2019-01-24T04:40:35.102Z,24.37
2019-01-24T04:42:38.854Z,22.73
2019-01-24T04:45:01.899Z,25.30
2019-01-24T04:47:05.642Z,24.77
2019-01-24T04:49:09.366Z,25.10
2019-01-24T04:51:13.101Z,23.57
2019-01-24T04:53:16.721Z,24.80
2019-01-24T04:55:20.500Z,24.75
2019-01-24T04:57:24.282Z,24.70
2019-01-24T04:59:28.049Z,24.65
2019-01-24T05:01:31.785Z,24.97
2019-01-24T05:03:35.529Z,23.73
2019-01-24T05:05:39.248Z,23.25
2019-01-24T05:07:42.948Z,23.62
2019-01-24T05:09:46.644Z,23.35
2019-01-24T05:11:50.455Z,23.83
2019-01-24T05:13:54.111Z,24.55
2019-01-24T05:15:57.918Z,22.60
2019-01-24T05:18:01.689Z,24.82
2019-01-24T05:20:08.652Z,25.07
2019-01-24T05:22:12.366Z,24.72
2019-01-24T05:24:16.020Z,23.18
2019-01-24T05:26:19.706Z,23.35
2019-01-24T05:28:23.393Z,25.30
2019-01-24T05:30:27.284Z,23.35
2019-01-24T05:32:31.028Z,24.87
2019-01-24T05:34:34.826Z,24.85
2019-01-24T05:36:38.603Z,24.37
2019-01-24T05:38:42.306Z,23.35
2019-01-24T05:40:46.028Z,23.47
2019-01-24T05:42:49.844Z,23.57
2019-01-24T05:44:53.503Z,23.63
2019-01-24T05:46:57.219Z,23.62
2019-01-24T05:49:00.808Z,21.15
2019-01-24T05:51:04.652Z,22.82
2019-01-24T05:53:08.266Z,25.03
2019-01-24T05:55:14.107Z,24.40
2019-01-24T05:57:17.948Z,24.05
2019-01-24T05:59:21.679Z,25.05
2019-01-24T06:01:25.913Z,23.35
2019-01-24T06:03:29.863Z,22.00
2019-01-24T06:05:33.780Z,22.90
2019-01-24T06:07:37.510Z,23.27
2019-01-24T06:09:41.292Z,24.77
2019-01-24T06:11:45.113Z,26.87
2019-01-24T06:13:48.791Z,24.20
2019-01-24T06:15:52.700Z,25.12
2019-01-24T06:17:56.620Z,25.37
2019-01-24T06:20:00.248Z,22.70
2019-01-24T06:22:04.051Z,23.83
2019-01-24T06:24:07.802Z,23.92
2019-01-24T06:26:11.633Z,22.50
2019-01-24T06:28:15.534Z,24.30
2019-01-24T06:30:20.971Z,25.02
2019-01-24T06:32:24.714Z,24.30
2019-01-24T06:34:28.534Z,23.83
2019-01-24T06:36:32.297Z,23.93
2019-01-24T06:38:36.148Z,25.60
2019-01-24T06:40:39.899Z,24.18
2019-01-24T06:42:43.758Z,23.70
2019-01-24T06:44:47.473Z,24.85
2019-01-24T06:46:51.402Z,25.70
2019-01-24T06:48:55.250Z,25.35
2019-01-24T06:50:59.109Z,25.55
2019-01-24T06:53:02.957Z,27.10
2019-01-24T06:55:12.286Z,24.65
2019-01-24T06:57:16.335Z,25.52
2019-01-24T06:59:20.161Z,27.17
2019-01-24T07:01:24.076Z,29.50
2019-01-24T07:03:28.112Z,25.90
2019-01-24T07:05:31.945Z,25.88
2019-01-24T07:07:35.882Z,24.87
2019-01-24T07:09:39.854Z,26.80
2019-01-24T07:11:43.670Z,24.57
2019-01-24T07:13:47.555Z,25.48
2019-01-24T07:15:51.397Z,24.47
2019-01-24T07:17:55.293Z,26.23
2019-01-24T07:19:59.147Z,26.52
2019-01-24T07:22:03.157Z,24.60
2019-01-24T07:24:07.008Z,22.82
2019-01-24T07:26:10.820Z,25.55
2019-01-24T07:28:14.940Z,26.37
2019-01-24T07:30:20.243Z,25.50
2019-01-24T07:32:24.115Z,25.10
2019-01-24T07:34:27.989Z,25.00
2019-01-24T07:36:33.567Z,26.12
2019-01-24T07:38:37.464Z,24.50
2019-01-24T07:40:41.436Z,24.80
2019-01-24T07:42:45.313Z,25.87
2019-01-24T07:44:49.310Z,25.00
2019-01-24T07:46:53.042Z,24.97
2019-01-24T07:48:57.059Z,23.53
2019-01-24T07:51:00.983Z,24.27
2019-01-24T07:53:06.685Z,25.97
2019-01-24T07:55:13.088Z,23.50
2019-01-24T07:57:18.293Z,23.13
2019-01-24T07:59:22.302Z,23.10
2019-01-24T08:01:26.158Z,24.20
2019-01-24T08:03:30.077Z,23.90
2019-01-24T08:05:33.951Z,22.02
2019-01-24T08:07:37.853Z,22.50
2019-01-24T08:09:41.779Z,21.80
2019-01-24T08:11:45.650Z,21.07
2019-01-24T08:13:49.503Z,21.90
2019-01-24T08:15:53.391Z,21.87
2019-01-24T08:17:57.292Z,19.62
2019-01-24T08:20:01.229Z,20.72
2019-01-24T08:22:05.123Z,22.40
2019-01-24T08:24:09.144Z,20.75
2019-01-24T08:26:13.016Z,22.67
2019-01-24T08:28:16.943Z,21.33
2019-01-24T08:30:24.891Z,21.55
2019-01-24T08:32:28.804Z,22.77
2019-01-24T08:34:32.708Z,26.37
2019-01-24T08:36:36.554Z,21.67
2019-01-24T08:38:40.428Z,21.77
2019-01-24T08:40:44.533Z,22.47
2019-01-24T08:42:48.461Z,21.60
2019-01-24T08:44:52.209Z,23.67
2019-01-24T08:46:56.121Z,20.62
2019-01-24T08:49:00.019Z,22.73
2019-01-24T08:51:04.007Z,20.50
2019-01-24T08:53:07.781Z,23.30
2019-01-24T08:55:23.398Z,21.93
2019-01-24T08:57:27.184Z,21.47
2019-01-24T08:59:31.078Z,20.95
2019-01-24T09:01:34.898Z,20.73
2019-01-24T09:03:38.834Z,22.60
2019-01-24T09:05:42.852Z,22.35
2019-01-24T09:07:46.841Z,22.73
2019-01-24T09:09:50.802Z,22.58
2019-01-24T09:11:54.716Z,21.40
2019-01-24T09:13:58.635Z,22.67
2019-01-24T09:16:02.537Z,22.52
2019-01-24T09:18:06.586Z,20.60
2019-01-24T09:20:13.600Z,23.07
2019-01-24T09:22:17.486Z,22.82
2019-01-24T09:24:21.440Z,21.93
2019-01-24T09:26:25.353Z,20.30
2019-01-24T09:28:29.259Z,24.57
2019-01-24T09:30:33.123Z,21.68
2019-01-24T09:32:37.036Z,22.17
2019-01-24T09:34:40.961Z,22.50
2019-01-24T09:36:44.842Z,20.77
2019-01-24T09:38:48.674Z,21.33
2019-01-24T09:40:52.736Z,20.00
2019-01-24T09:42:56.598Z,24.10
2019-01-24T09:45:00.481Z,20.88
2019-01-24T09:47:06.183Z,20.80
2019-01-24T09:49:09.993Z,21.83
2019-01-24T09:51:13.859Z,21.05
2019-01-24T09:53:17.768Z,22.17
2019-01-24T09:55:21.789Z,23.50
2019-01-24T09:57:25.671Z,24.03
2019-01-24T09:59:29.548Z,22.77
2019-01-24T10:01:33.532Z,22.23
2019-01-24T10:03:37.406Z,21.27
2019-01-24T10:05:41.290Z,22.10
2019-01-24T10:07:45.415Z,23.50
2019-01-24T10:09:49.341Z,23.70
2019-01-24T10:11:53.231Z,23.10
2019-01-24T10:13:57.022Z,22.10
2019-01-24T10:16:00.990Z,22.53
2019-01-24T10:18:04.986Z,22.67
2019-01-24T10:20:17.020Z,24.50
2019-01-24T10:22:21.021Z,23.37
2019-01-24T10:24:24.932Z,23.57
2019-01-24T10:26:28.908Z,24.02
2019-01-24T10:28:32.910Z,23.65
2019-01-24T10:30:42.571Z,23.23
2019-01-24T10:32:44.282Z,23.20
2019-01-24T10:34:48.236Z,22.67
2019-01-24T10:36:52.161Z,22.20
2019-01-24T10:38:56.095Z,21.60
2019-01-24T10:41:00.016Z,22.63
2019-01-24T10:43:05.405Z,21.97
2019-01-24T10:45:12.287Z,21.53
2019-01-24T10:47:16.164Z,22.22
2019-01-24T10:49:20.094Z,19.27
2019-01-24T10:51:24.016Z,20.57
2019-01-24T10:53:27.840Z,21.70
2019-01-24T10:55:31.780Z,20.90
2019-01-24T10:57:35.698Z,21.07
2019-01-24T10:59:39.581Z,23.53
2019-01-24T11:01:43.560Z,21.10
2019-01-24T11:03:47.401Z,20.90
2019-01-24T11:05:51.291Z,24.70
2019-01-24T11:07:55.172Z,22.20
2019-01-24T11:10:00.658Z,24.00
2019-01-24T11:12:05.070Z,20.93
2019-01-24T11:14:08.910Z,20.90
2019-01-24T11:16:12.789Z,21.00
2019-01-24T11:18:19.030Z,22.87
2019-01-24T11:20:23.129Z,22.90
2019-01-24T11:22:27.167Z,23.40
2019-01-24T11:24:31.018Z,19.40
2019-01-24T11:26:34.833Z,20.07
2019-01-24T11:28:38.792Z,19.37
2019-01-24T11:30:42.723Z,19.93
2019-01-24T11:32:46.664Z,20.90
2019-01-24T11:34:50.482Z,21.47
2019-01-24T11:36:57.231Z,19.77
2019-01-24T11:38:59.734Z,19.60
2019-01-24T11:41:03.663Z,19.00
2019-01-24T11:43:07.585Z,18.80
2019-01-24T11:45:14.121Z,20.67
2019-01-24T11:47:17.961Z,20.43
2019-01-24T11:49:21.824Z,22.73
2019-01-24T11:51:25.699Z,21.00
2019-01-24T11:53:29.644Z,19.87
2019-01-24T11:55:33.482Z,19.30
2019-01-24T11:57:37.340Z,21.07
2019-01-24T11:59:41.196Z,20.67
2019-01-24T12:01:45.085Z,21.83
2019-01-24T12:03:49.976Z,21.30
2019-01-24T12:05:53.755Z,19.50
2019-01-24T12:07:57.674Z,19.77
2019-01-24T12:10:01.524Z,18.30
2019-01-24T12:12:06.879Z,19.30
2019-01-24T12:14:10.853Z,18.77
2019-01-24T12:16:14.678Z,18.70
2019-01-24T12:18:18.627Z,19.07
2019-01-24T12:20:24.255Z,17.73
2019-01-24T12:22:28.000Z,21.40
2019-01-24T12:24:31.916Z,19.23
2019-01-24T12:26:35.761Z,18.97
2019-01-24T12:28:39.620Z,19.97
2019-01-24T12:30:43.452Z,19.03
2019-01-24T12:32:47.310Z,18.13
2019-01-24T12:34:51.186Z,18.70
2019-01-24T12:36:56.610Z,18.87
2019-01-24T12:39:01.839Z,16.37
2019-01-24T12:41:05.652Z,17.80
2019-01-24T12:43:09.526Z,19.67
2019-01-24T12:45:19.121Z,18.10
2019-01-24T12:47:24.027Z,18.13
2019-01-24T12:49:27.924Z,19.50
2019-01-24T12:51:31.923Z,18.53
2019-01-24T12:53:35.770Z,19.40
2019-01-24T12:55:39.690Z,17.97
2019-01-24T12:57:43.581Z,18.50
2019-01-24T12:59:47.568Z,19.47
2019-01-24T13:01:51.428Z,21.20
2019-01-24T13:03:55.470Z,21.43
2019-01-24T13:05:59.334Z,23.37
2019-01-24T13:08:03.245Z,22.73
2019-01-24T13:10:10.237Z,21.57
2019-01-24T13:12:14.188Z,19.50
2019-01-24T13:14:18.161Z,20.57
2019-01-24T13:16:22.014Z,21.67
2019-01-24T13:18:25.895Z,21.93
2019-01-24T13:20:30.039Z,19.10
2019-01-24T13:22:33.954Z,19.23
2019-01-24T13:24:37.872Z,20.80
2019-01-24T13:26:41.806Z,21.20
2019-01-24T13:28:45.559Z,19.50
2019-01-24T13:30:49.464Z,18.53
2019-01-24T13:32:53.563Z,17.40
2019-01-24T13:34:57.636Z,20.60
2019-01-24T13:37:01.627Z,20.47
2019-01-24T13:39:09.604Z,19.83
2019-01-24T13:41:13.737Z,19.97
2019-01-24T13:43:17.609Z,22.93
2019-01-24T13:45:29.674Z,22.03
2019-01-24T13:47:33.476Z,23.50
2019-01-24T13:49:37.369Z,21.10
2019-01-24T13:51:41.246Z,19.23
2019-01-24T13:53:45.142Z,20.77
2019-01-24T13:55:49.149Z,19.73
2019-01-24T13:57:53.007Z,22.27
2019-01-24T13:59:56.973Z,20.47
2019-01-24T14:02:00.816Z,21.70
2019-01-24T14:04:07.618Z,23.50
2019-01-24T14:06:13.163Z,20.30
2019-01-24T14:08:17.210Z,22.07
2019-01-24T14:10:22.239Z,20.97
2019-01-24T14:12:26.186Z,20.50
2019-01-24T14:14:30.660Z,21.17
2019-01-24T14:16:34.488Z,19.43
2019-01-24T14:18:38.415Z,21.00
2019-01-24T14:20:42.789Z,20.10
2019-01-24T14:22:47.547Z,20.70
2019-01-24T14:24:53.965Z,21.80
2019-01-24T14:26:58.817Z,21.23
2019-01-24T14:29:03.072Z,22.83
2019-01-24T14:31:07.048Z,22.33
2019-01-24T14:33:12.510Z,22.80
2019-01-24T14:35:17.073Z,23.50
2019-01-24T14:37:21.844Z,22.57
2019-01-24T14:39:26.727Z,23.70
2019-01-24T14:41:30.864Z,22.50
2019-01-24T14:43:34.996Z,23.73
2019-01-24T14:45:39.219Z,25.67
2019-01-24T14:47:48.764Z,23.60
2019-01-24T14:49:52.791Z,24.77
2019-01-24T14:51:56.845Z,26.70
2019-01-24T14:54:01.118Z,26.70
2019-01-24T14:56:05.098Z,22.97
2019-01-24T14:58:08.835Z,23.13
2019-01-24T15:00:18.375Z,22.40
2019-01-24T15:02:22.206Z,24.00
2019-01-24T15:04:25.932Z,23.97
2019-01-24T15:06:29.865Z,22.83
2019-01-24T15:08:33.535Z,25.07
2019-01-24T15:10:37.947Z,22.90
2019-01-24T15:12:42.923Z,21.40
2019-01-24T15:14:46.641Z,23.33
2019-01-24T15:16:51.106Z,23.73
2019-01-24T15:18:55.045Z,24.60
2019-01-24T15:20:58.983Z,25.15
2019-01-24T15:23:02.824Z,23.90
2019-01-24T15:25:09.646Z,25.03
2019-01-24T15:27:13.361Z,26.67
2019-01-24T15:29:18.001Z,26.27
2019-01-24T15:31:21.740Z,22.20
2019-01-24T15:33:25.551Z,25.97
2019-01-24T15:35:29.372Z,26.90
2019-01-24T15:37:33.202Z,25.77
2019-01-24T15:39:36.798Z,26.23
2019-01-24T15:41:40.391Z,24.27
2019-01-24T15:43:44.158Z,26.50
2019-01-24T15:45:47.941Z,25.43
2019-01-24T15:47:51.724Z,25.73
2019-01-24T15:49:55.403Z,24.27
2019-01-24T15:51:59.065Z,23.30
2019-01-24T15:54:02.877Z,25.57
2019-01-24T15:56:06.605Z,24.73
2019-01-24T15:58:10.475Z,25.63
2019-01-24T16:00:26.139Z,23.97
2019-01-24T16:02:29.757Z,24.70
2019-01-24T16:04:33.669Z,24.83
2019-01-24T16:06:37.364Z,26.37
2019-01-24T16:08:41.107Z,26.60
2019-01-24T16:10:44.821Z,25.40
2019-01-24T16:12:48.668Z,25.60
2019-01-24T16:14:52.328Z,26.80
2019-01-24T16:16:56.080Z,27.67
2019-01-24T16:18:59.782Z,23.53
2019-01-24T16:21:03.616Z,28.43
2019-01-24T16:23:07.476Z,26.93
2019-01-24T16:25:14.116Z,27.53
2019-01-24T16:27:19.430Z,23.93
2019-01-24T16:29:23.205Z,24.70
2019-01-24T16:31:26.878Z,24.00
2019-01-24T16:33:30.645Z,25.03
2019-01-24T16:35:34.490Z,24.07
2019-01-24T16:37:38.165Z,23.90
2019-01-24T16:39:41.864Z,24.07
2019-01-24T16:41:45.600Z,23.10
2019-01-24T16:43:49.243Z,22.63
2019-01-24T16:45:52.862Z,26.10
2019-01-24T16:47:56.632Z,22.70
2019-01-24T16:50:00.372Z,22.87
2019-01-24T16:52:04.106Z,23.73
2019-01-24T16:54:07.895Z,25.00
2019-01-24T16:56:11.581Z,23.60
2019-01-24T16:58:15.261Z,22.00
2019-01-24T17:00:45.669Z,23.87
2019-01-24T17:02:49.390Z,22.83
2019-01-24T17:04:53.365Z,27.23
2019-01-24T17:06:57.112Z,24.83
2019-01-24T17:09:01.114Z,25.73
2019-01-24T17:11:04.869Z,27.47
2019-01-24T17:13:08.827Z,24.30
2019-01-24T17:15:14.841Z,25.83
2019-01-24T17:17:18.640Z,24.73
2019-01-24T17:19:22.414Z,24.23
2019-01-24T17:21:27.623Z,26.00
2019-01-24T17:23:31.616Z,23.23
2019-01-24T17:25:35.435Z,23.93
2019-01-24T17:27:45.898Z,22.33
2019-01-24T17:29:44.848Z,25.80
2019-01-24T17:31:48.595Z,24.80
2019-01-24T17:33:52.328Z,23.43
2019-01-24T17:35:56.074Z,25.90
2019-01-24T17:37:59.725Z,27.48
2019-01-24T17:40:04.978Z,28.23
2019-01-24T17:42:08.817Z,29.70
2019-01-24T17:44:12.626Z,29.73
2019-01-24T17:46:16.285Z,28.30
2019-01-24T17:48:19.987Z,27.77
2019-01-24T17:50:24.141Z,27.60
2019-01-24T17:52:27.878Z,26.80
2019-01-24T17:54:31.653Z,29.13
2019-01-24T17:56:35.337Z,32.40
2019-01-24T17:58:39.232Z,28.20
2019-01-24T18:00:44.811Z,27.93
2019-01-24T18:02:48.514Z,31.17
2019-01-24T18:04:52.646Z,28.57
2019-01-24T18:06:56.305Z,29.72
2019-01-24T18:08:59.965Z,32.80
2019-01-24T18:11:04.277Z,31.77
2019-01-24T18:13:08.097Z,34.67
2019-01-24T18:15:15.139Z,31.60
2019-01-24T18:17:18.872Z,32.05
2019-01-24T18:19:22.553Z,29.48
2019-01-24T18:21:26.562Z,30.15
2019-01-24T18:23:30.314Z,31.37
2019-01-24T18:25:34.069Z,30.45
2019-01-24T18:27:37.846Z,32.17
2019-01-24T18:29:41.568Z,30.60
2019-01-24T18:31:45.264Z,34.53
2019-01-24T18:33:49.032Z,31.55
2019-01-24T18:35:54.154Z,31.62
2019-01-24T18:37:57.829Z,31.42
2019-01-24T18:40:01.558Z,33.65
2019-01-24T18:42:05.404Z,33.30
2019-01-24T18:44:09.164Z,35.28
2019-01-24T18:46:12.946Z,36.80
2019-01-24T18:48:16.695Z,36.03
2019-01-24T18:50:21.916Z,38.53
2019-01-24T18:52:25.673Z,36.10
2019-01-24T18:54:29.519Z,36.67
2019-01-24T18:56:33.302Z,38.65
2019-01-24T18:58:37.042Z,35.30
2019-01-24T19:00:44.568Z,38.40
2019-01-24T19:02:48.395Z,37.20
2019-01-24T19:04:52.072Z,35.80
2019-01-24T19:06:55.793Z,37.47
2019-01-24T19:08:59.484Z,37.58
2019-01-24T19:11:04.103Z,37.43
2019-01-24T19:13:07.960Z,36.38
2019-01-24T19:15:23.144Z,34.50
2019-01-24T19:17:26.957Z,32.07
2019-01-24T19:19:31.930Z,36.68
2019-01-24T19:21:35.784Z,33.13
2019-01-24T19:23:39.550Z,34.57
2019-01-24T19:25:43.357Z,35.27
2019-01-24T19:27:47.100Z,34.10
2019-01-24T19:29:50.883Z,34.38
2019-01-24T19:31:54.758Z,34.37
2019-01-24T19:33:58.512Z,34.18
2019-01-24T19:36:02.111Z,34.15
2019-01-24T19:38:06.205Z,34.20
2019-01-24T19:40:14.259Z,32.97
2019-01-24T19:42:17.925Z,35.63
2019-01-24T19:44:21.903Z,33.03
2019-01-24T19:46:25.713Z,33.60
2019-01-24T19:48:29.809Z,34.90
2019-01-24T19:50:34.246Z,32.25
2019-01-24T19:52:38.101Z,34.83
2019-01-24T19:54:42.353Z,35.33
2019-01-24T19:56:48.305Z,34.00
2019-01-24T19:58:52.065Z,32.93
2019-01-24T20:00:56.347Z,35.63
2019-01-24T20:03:00.869Z,34.23
2019-01-24T20:05:07.329Z,37.20
2019-01-24T20:07:11.222Z,34.33
2019-01-24T20:09:15.766Z,37.35
2019-01-24T20:11:19.610Z,35.33
2019-01-24T20:13:24.392Z,37.63
2019-01-24T20:15:30.235Z,39.83
2019-01-24T20:17:34.526Z,39.27
2019-01-24T20:19:39.116Z,36.30
2019-01-24T20:21:43.374Z,35.70
2019-01-24T20:23:47.158Z,38.63
2019-01-24T20:25:51.819Z,35.68
2019-01-24T20:27:55.660Z,35.63
2019-01-24T20:29:59.460Z,37.73
2019-01-24T20:32:03.260Z,33.20
2019-01-24T20:34:07.328Z,32.40
2019-01-24T20:36:12.111Z,29.95
2019-01-24T20:38:15.837Z,34.70
2019-01-24T20:40:21.438Z,32.15
2019-01-24T20:42:25.109Z,34.38
2019-01-24T20:44:28.745Z,33.58
2019-01-24T20:46:32.536Z,34.00
2019-01-24T20:48:36.570Z,34.40
2019-01-24T20:50:40.295Z,33.63
2019-01-24T20:52:44.046Z,34.33
2019-01-24T20:54:47.778Z,31.45
2019-01-24T20:56:51.456Z,33.60
2019-01-24T20:58:55.146Z,33.63
2019-01-24T21:00:58.870Z,36.20
2019-01-24T21:03:02.779Z,36.08
2019-01-24T21:05:09.013Z,36.13
2019-01-24T21:07:12.842Z,34.78
2019-01-24T21:09:16.600Z,36.05
2019-01-24T21:11:21.988Z,38.00
2019-01-24T21:13:26.846Z,34.98
2019-01-24T21:15:30.660Z,31.57
2019-01-24T21:17:34.328Z,38.10
2019-01-24T21:19:38.141Z,40.08
2019-01-24T21:21:41.877Z,37.83
2019-01-24T21:23:45.585Z,35.68
2019-01-24T21:25:49.263Z,37.08
2019-01-24T21:27:53.008Z,36.08
2019-01-24T21:29:56.662Z,34.13
2019-01-24T21:32:00.407Z,35.17
2019-01-24T21:34:04.173Z,32.58
2019-01-24T21:36:07.937Z,35.60
2019-01-24T21:38:11.668Z,37.70
2019-01-24T21:40:17.769Z,37.67
2019-01-24T21:42:23.233Z,36.50
2019-01-24T21:44:26.962Z,32.40
2019-01-24T21:46:30.702Z,35.20
2019-01-24T21:48:34.467Z,36.53
2019-01-24T21:50:38.242Z,37.60
2019-01-24T21:52:41.996Z,33.67
2019-01-24T21:54:45.707Z,36.13
2019-01-24T21:56:49.384Z,34.90
2019-01-24T21:58:53.138Z,32.42
2019-01-24T22:00:56.841Z,31.37
2019-01-24T22:03:00.601Z,31.23
2019-01-24T22:05:06.951Z,31.25
2019-01-24T22:07:10.796Z,35.35
2019-01-24T22:09:14.502Z,38.88
2019-01-24T22:11:18.349Z,39.03
2019-01-24T22:13:22.017Z,36.00
2019-01-24T22:15:27.990Z,35.65
2019-01-24T22:17:31.610Z,35.73
2019-01-24T22:19:35.343Z,34.50
2019-01-24T22:21:39.037Z,32.55
2019-01-24T22:23:42.892Z,31.35
2019-01-24T22:25:46.645Z,30.40
2019-01-24T22:27:50.389Z,33.30
2019-01-24T22:29:54.131Z,32.60
2019-01-24T22:31:57.976Z,31.40
2019-01-24T22:34:01.709Z,32.40
2019-01-24T22:36:05.696Z,30.37
2019-01-24T22:38:11.134Z,33.38
2019-01-24T22:40:15.688Z,33.60
2019-01-24T22:42:19.327Z,32.42
2019-01-24T22:44:23.057Z,30.00
2019-01-24T22:46:26.706Z,32.53
2019-01-24T22:48:30.419Z,32.83
2019-01-24T22:50:34.164Z,33.95
2019-01-24T22:52:38.042Z,32.67
2019-01-24T22:54:41.789Z,31.37
2019-01-24T22:56:45.523Z,32.70
2019-01-24T22:58:49.289Z,30.23
2019-01-24T23:01:05.335Z,31.83
2019-01-24T23:03:09.254Z,33.40
2019-01-24T23:05:12.998Z,29.87
2019-01-24T23:07:16.804Z,33.42
2019-01-24T23:09:20.611Z,32.55
2019-01-24T23:11:24.383Z,32.40
2019-01-24T23:13:29.618Z,33.38
2019-01-24T23:15:33.364Z,31.75
2019-01-24T23:17:37.165Z,32.83
2019-01-24T23:19:40.905Z,31.10
2019-01-24T23:21:44.707Z,32.85
2019-01-24T23:23:48.430Z,31.23
2019-01-24T23:25:52.238Z,32.78
2019-01-24T23:27:55.977Z,33.00
2019-01-24T23:29:59.730Z,31.35
2019-01-24T23:32:03.558Z,33.40
2019-01-24T23:34:07.287Z,30.68
2019-01-24T23:36:11.047Z,33.48
2019-01-24T23:38:14.766Z,32.70
2019-01-24T23:40:18.515Z,31.50
2019-01-24T23:42:22.189Z,33.38
2019-01-24T23:44:26.084Z,30.40
2019-01-24T23:46:29.855Z,32.70
2019-01-24T23:48:33.568Z,33.67
2019-01-24T23:50:37.313Z,33.20
2019-01-24T23:52:41.127Z,30.37
2019-01-24T23:54:44.922Z,31.82
2019-01-24T23:56:48.602Z,32.70
2019-01-24T23:58:52.385Z,34.53
